Time,TemperatureF,DewpointF,PressureIn,WindDirection,WindDirectionDegrees,WindSpeedMPH,WindSpeedGustMPH,Humidity,HourlyPrecipIn,Conditions,Clouds,dailyrainin,SolarRadiationWatts/m^2,SoftwareType,DateUTC
2013-05-28 00:01:00,44.4,41.9,30.10,West,280,0.0,0.0,91,0.00,CLR,FEW,0.00,0.0,WeatherDisplay:10.37,2013-05-28 04:01:00,
2013-05-28 00:06:00,44.0,41.5,30.10,West,280,0.0,0.0,91,0.00,CLR,FEW,0.00,0.0,WeatherDisplay:10.37,2013-05-28 04:06:00,
2013-05-28 00:11:00,43.7,41.5,30.11,West,280,0.0,0.0,92,0.00,CLR,FEW,0.00,0.0,WeatherDisplay:10.37,2013-05-28 04:11:00,
2013-05-28 00:16:00,43.5,41.3,30.11,West,280,0.0,0.0,92,0.00,CLR,FEW,0.00,0.0,WeatherDisplay:10.37,2013-05-28 04:16:00,
2013-05-28 00:21:00,43.8,41.9,30.11,West,281,1.0,2.3,93,0.00,CLR,FEW,0.00,0.0,WeatherDisplay:10.37,2013-05-28 04:21:00,
2013-05-28 00:26:00,43.9,42.0,30.11,West,281,0.1,2.0,93,0.00,CLR,FEW,0.00,0.0,WeatherDisplay:10.37,2013-05-28 04:26:00,
2013-05-28 00:31:00,43.8,41.9,30.11,West,281,0.9,2.3,93,0.00,CLR,FEW,0.00,0.0,WeatherDisplay:10.37,2013-05-28 04:31:00,
2013-05-28 00:36:00,43.6,41.4,30.11,West,281,0.0,0.0,92,0.00,CLR,FEW,0.00,0.0,WeatherDisplay:10.37,2013-05-28 04:36:00,
2013-05-28 00:41:00,43.4,41.2,30.11,West,281,0.0,0.0,92,0.00,CLR,FEW,0.00,0.0,WeatherDisplay:10.37,2013-05-28 04:41:00,
2013-05-28 00:46:00,43.2,41.0,30.11,West,281,0.0,0.0,92,0.00,CLR,FEW,0.00,0.0,WeatherDisplay:10.37,2013-05-28 04:46:00,
2013-05-28 00:51:00,42.9,40.7,30.11,West,280,0.0,0.0,92,0.00,CLR,FEW,0.00,0.0,WeatherDisplay:10.37,2013-05-28 04:51:00,
2013-05-28 00:56:00,42.5,40.3,30.12,West,280,0.0,0.0,92,0.00,CLR,FEW,0.00,0.0,WeatherDisplay:10.37,2013-05-28 04:56:00,
2013-05-28 01:01:00,42.3,40.4,30.12,West,281,0.0,0.0,93,0.00,CLR,FEW,0.00,0.0,WeatherDisplay:10.37,2013-05-28 05:01:00,
2013-05-28 01:06:00,42.1,40.2,30.12,West,281,0.0,0.0,93,0.00,CLR,FEW,0.00,0.0,WeatherDisplay:10.37,2013-05-28 05:06:00,
2013-05-28 01:11:00,42.2,40.3,30.12,West,281,0.0,0.0,93,0.00,CLR,FEW,0.00,0.0,WeatherDisplay:10.37,2013-05-28 05:11:00,
2013-05-28 01:16:00,42.3,40.4,30.12,West,281,0.2,1.0,93,0.00,CLR,FEW,0.00,0.0,WeatherDisplay:10.37,2013-05-28 05:16:00,
2013-05-28 01:21:00,42.4,40.5,30.12,West,281,0.0,0.0,93,0.00,CLR,FEW,0.00,0.0,WeatherDisplay:10.37,2013-05-28 05:21:00,
2013-05-28 01:26:00,42.4,40.5,30.12,West,280,0.0,0.0,93,0.00,CLR,FEW,0.00,0.0,WeatherDisplay:10.37,2013-05-28 05:26:00,
2013-05-28 01:31:00,42.3,40.4,30.12,West,281,0.0,0.0,93,0.00,CLR,FEW,0.00,0.0,WeatherDisplay:10.37,2013-05-28 05:31:00,
2013-05-28 01:36:00,42.0,40.1,30.12,West,280,0.0,0.0,93,0.00,CLR,FEW,0.00,0.0,WeatherDisplay:10.37,2013-05-28 05:36:00,
2013-05-28 01:41:00,41.8,39.9,30.12,West,281,0.0,0.0,93,0.00,CLR,FEW,0.00,0.0,WeatherDisplay:10.37,2013-05-28 05:41:00,
2013-05-28 01:46:00,41.8,40.2,30.12,West,281,0.0,0.0,94,0.00,CLR,FEW,0.00,0.0,WeatherDisplay:10.37,2013-05-28 05:46:00,
2013-05-28 01:51:00,41.6,40.0,30.12,West,281,0.0,0.0,94,0.00,CLR,FEW,0.00,0.0,WeatherDisplay:10.37,2013-05-28 05:51:00,
2013-05-28 01:57:00,41.5,39.9,30.12,West,281,0.0,0.0,94,0.00,CLR,FEW,0.00,0.0,WeatherDisplay:10.37,2013-05-28 05:57:00,
2013-05-28 02:02:00,41.5,39.9,30.12,West,280,0.0,0.0,94,0.00,CLR,FEW,0.00,0.0,WeatherDisplay:10.37,2013-05-28 06:02:00,
2013-05-28 02:07:00,41.4,39.8,30.12,West,281,0.0,0.0,94,0.00,CLR,FEW,0.00,0.0,WeatherDisplay:10.37,2013-05-28 06:07:00,
2013-05-28 02:12:00,41.3,39.7,30.12,West,280,0.0,0.0,94,0.00,CLR,FEW,0.00,0.0,WeatherDisplay:10.37,2013-05-28 06:12:00,
2013-05-28 02:17:00,41.1,39.5,30.12,West,281,0.0,0.0,94,0.00,CLR,FEW,0.00,0.0,WeatherDisplay:10.37,2013-05-28 06:17:00,
2013-05-28 02:22:00,41.1,39.5,30.12,West,281,0.0,0.0,94,0.00,CLR,FEW,0.00,0.0,WeatherDisplay:10.37,2013-05-28 06:22:00,
2013-05-28 02:27:00,41.0,39.4,30.13,West,281,0.0,0.0,94,0.00,CLR,FEW,0.00,0.0,WeatherDisplay:10.37,2013-05-28 06:27:00,
2013-05-28 02:32:00,41.2,39.9,30.13,West,280,0.0,0.0,95,0.00,CLR,FEW,0.00,0.0,WeatherDisplay:10.37,2013-05-28 06:32:00,
2013-05-28 02:37:00,41.3,40.0,30.13,West,281,0.0,0.0,95,0.00,CLR,FEW,0.00,0.0,WeatherDisplay:10.37,2013-05-28 06:37:00,
2013-05-28 02:42:00,41.3,40.0,30.13,West,280,0.0,0.0,95,0.00,CLR,FEW,0.00,0.0,WeatherDisplay:10.37,2013-05-28 06:42:00,
2013-05-28 02:47:00,41.2,39.9,30.13,West,280,0.0,0.0,95,0.00,CLR,FEW,0.00,0.0,WeatherDisplay:10.37,2013-05-28 06:47:00,
2013-05-28 02:52:00,41.0,39.7,30.13,West,280,0.0,0.0,95,0.00,CLR,FEW,0.00,0.0,WeatherDisplay:10.37,2013-05-28 06:52:00,
2013-05-28 02:57:00,40.9,39.6,30.13,West,281,0.0,0.0,95,0.00,CLR,FEW,0.00,0.0,WeatherDisplay:10.37,2013-05-28 06:57:00,
2013-05-28 03:02:00,40.6,39.3,30.13,West,280,0.0,0.0,95,0.00,CLR,FEW,0.00,0.0,WeatherDisplay:10.37,2013-05-28 07:02:00,
2013-05-28 03:07:00,40.5,39.2,30.13,West,281,0.0,0.0,95,0.00,CLR,FEW,0.00,0.0,WeatherDisplay:10.37,2013-05-28 07:07:00,
2013-05-28 03:12:00,40.5,39.2,30.13,West,280,0.0,0.0,95,0.00,CLR,FEW,0.00,0.0,WeatherDisplay:10.37,2013-05-28 07:12:00,
2013-05-28 03:17:00,40.5,39.2,30.13,West,281,0.0,0.0,95,0.00,CLR,FEW,0.00,0.0,WeatherDisplay:10.37,2013-05-28 07:17:00,
2013-05-28 03:22:00,40.4,39.1,30.13,West,281,0.0,0.0,95,0.00,CLR,FEW,0.00,0.0,WeatherDisplay:10.37,2013-05-28 07:22:00,
2013-05-28 03:27:00,40.4,39.1,30.13,West,280,0.0,0.0,95,0.00,CLR,FEW,0.00,0.0,WeatherDisplay:10.37,2013-05-28 07:27:00,
2013-05-28 03:32:00,40.4,39.1,30.13,West,281,0.0,0.0,95,0.00,CLR,FEW,0.00,0.0,WeatherDisplay:10.37,2013-05-28 07:32:00,
2013-05-28 03:37:00,40.4,39.1,30.13,West,280,0.0,0.0,95,0.00,CLR,FEW,0.00,0.0,WeatherDisplay:10.37,2013-05-28 07:37:00,
2013-05-28 03:42:00,40.3,39.0,30.13,West,281,0.0,0.0,95,0.00,CLR,FEW,0.00,0.0,WeatherDisplay:10.37,2013-05-28 07:42:00,
2013-05-28 03:47:00,40.1,38.8,30.13,West,281,0.0,0.0,95,0.00,CLR,FEW,0.00,0.0,WeatherDisplay:10.37,2013-05-28 07:47:00,
2013-05-28 03:52:00,39.9,38.6,30.13,West,281,0.0,0.0,95,0.00,CLR,FEW,0.00,0.0,WeatherDisplay:10.37,2013-05-28 07:52:00,
2013-05-28 03:57:00,39.8,38.5,30.13,West,281,0.0,0.0,95,0.00,CLR,FEW,0.00,0.0,WeatherDisplay:10.37,2013-05-28 07:57:00,
2013-05-28 04:02:00,39.8,38.5,30.13,West,280,0.0,0.0,95,0.00,CLR,FEW,0.00,0.0,WeatherDisplay:10.37,2013-05-28 08:02:00,
2013-05-28 04:07:00,39.7,38.4,30.13,West,280,0.0,0.0,95,0.00,CLR,FEW,0.00,0.0,WeatherDisplay:10.37,2013-05-28 08:07:00,
2013-05-28 04:12:00,39.7,38.4,30.14,West,281,0.0,0.0,95,0.00,CLR,FEW,0.00,0.0,WeatherDisplay:10.37,2013-05-28 08:12:00,
2013-05-28 04:17:00,39.9,38.9,30.14,West,281,0.0,0.0,96,0.00,CLR,FEW,0.00,0.0,WeatherDisplay:10.37,2013-05-28 08:17:00,
2013-05-28 04:22:00,39.9,38.9,30.14,West,281,0.0,0.0,96,0.00,CLR,FEW,0.00,0.0,WeatherDisplay:10.37,2013-05-28 08:22:00,
2013-05-28 04:27:00,39.8,38.5,30.14,West,280,0.0,0.0,95,0.00,CLR,FEW,0.00,0.0,WeatherDisplay:10.37,2013-05-28 08:27:00,
2013-05-28 04:32:00,39.8,38.5,30.14,West,281,0.0,0.0,95,0.00,CLR,FEW,0.00,0.0,WeatherDisplay:10.37,2013-05-28 08:32:00,
2013-05-28 04:37:00,39.7,38.7,30.14,West,281,0.0,0.0,96,0.00,CLR,FEW,0.00,0.0,WeatherDisplay:10.37,2013-05-28 08:37:00,
2013-05-28 04:42:00,39.7,38.7,30.15,West,281,0.0,0.0,96,0.00,CLR,FEW,0.00,0.0,WeatherDisplay:10.37,2013-05-28 08:42:00,
2013-05-28 04:47:00,39.7,38.7,30.15,West,281,0.0,0.0,96,0.00,CLR,FEW,0.00,0.0,WeatherDisplay:10.37,2013-05-28 08:47:00,
2013-05-28 04:52:00,39.7,38.7,30.15,West,281,0.0,0.0,96,0.00,CLR,FEW,0.00,0.0,WeatherDisplay:10.37,2013-05-28 08:52:00,
2013-05-28 04:57:00,39.6,38.6,30.15,West,280,0.0,0.0,96,0.00,CLR,FEW,0.00,5.0,WeatherDisplay:10.37,2013-05-28 08:57:00,
2013-05-28 05:02:00,39.7,38.7,30.15,West,281,0.0,0.0,96,0.00,CLR,FEW,0.00,5.0,WeatherDisplay:10.37,2013-05-28 09:02:00,
2013-05-28 05:07:00,39.7,38.7,30.15,West,280,0.0,0.0,96,0.00,CLR,FEW,0.00,9.0,WeatherDisplay:10.37,2013-05-28 09:07:00,
2013-05-28 05:12:00,39.7,38.7,30.15,West,281,0.0,0.0,96,0.00,CLR,FEW,0.00,12.0,WeatherDisplay:10.37,2013-05-28 09:12:00,
2013-05-28 05:17:00,39.7,38.7,30.15,West,280,0.0,0.0,96,0.00,FEW,,0.00,14.0,WeatherDisplay:10.37,2013-05-28 09:17:00,
2013-05-28 05:22:00,39.7,38.7,30.15,West,281,0.0,1.2,96,0.00,SCT,FEW,0.00,18.0,WeatherDisplay:10.37,2013-05-28 09:22:00,
2013-05-28 05:27:00,39.8,38.8,30.15,West,281,0.0,0.0,96,0.00,SCT,FEW,0.00,19.0,WeatherDisplay:10.37,2013-05-28 09:27:00,
2013-05-28 05:32:00,39.8,38.8,30.15,West,281,0.0,0.0,96,0.00,SCT,FEW,0.00,23.0,WeatherDisplay:10.37,2013-05-28 09:32:00,
2013-05-28 05:37:00,39.9,38.9,30.15,West,281,0.0,0.0,96,0.00,CLR,FEW,0.00,56.0,WeatherDisplay:10.37,2013-05-28 09:37:00,
2013-05-28 05:42:00,40.4,39.4,30.15,West,281,0.0,0.0,96,0.00,CLR,FEW,0.00,70.0,WeatherDisplay:10.37,2013-05-28 09:42:00,
2013-05-28 05:47:00,40.8,39.7,30.15,West,280,0.0,0.0,96,0.00,CLR,FEW,0.00,81.0,WeatherDisplay:10.37,2013-05-28 09:47:00,
2013-05-28 05:52:00,41.2,40.1,30.15,West,280,0.0,0.0,96,0.00,CLR,FEW,0.00,90.0,WeatherDisplay:10.37,2013-05-28 09:52:00,
2013-05-28 05:57:00,41.8,40.7,30.16,West,280,0.0,0.0,96,0.00,CLR,FEW,0.00,107.0,WeatherDisplay:10.37,2013-05-28 09:57:00,
2013-05-28 06:02:00,42.8,41.7,30.16,West,280,0.0,1.2,96,0.00,CLR,FEW,0.00,118.0,WeatherDisplay:10.37,2013-05-28 10:02:00,
2013-05-28 06:07:00,42.5,41.2,30.16,West,281,0.0,0.0,95,0.00,CLR,FEW,0.00,128.0,WeatherDisplay:10.37,2013-05-28 10:07:00,
2013-05-28 06:12:00,42.7,41.4,30.16,West,281,0.0,0.0,95,0.00,CLR,FEW,0.00,139.0,WeatherDisplay:10.37,2013-05-28 10:12:00,
2013-05-28 06:17:00,43.3,42.0,30.16,West,281,0.0,0.0,95,0.00,CLR,FEW,0.00,151.0,WeatherDisplay:10.37,2013-05-28 10:17:00,
2013-05-28 06:22:00,44.5,43.2,30.16,West,281,0.0,1.2,95,0.00,CLR,FEW,0.00,158.0,WeatherDisplay:10.37,2013-05-28 10:22:00,
2013-05-28 06:27:00,45.0,43.4,30.16,West,280,0.0,1.2,94,0.00,CLR,FEW,0.00,169.0,WeatherDisplay:10.37,2013-05-28 10:27:00,
2013-05-28 06:32:00,45.5,43.6,30.16,West,281,0.1,0.0,93,0.00,CLR,FEW,0.00,179.0,WeatherDisplay:10.37,2013-05-28 10:32:00,
2013-05-28 06:37:00,45.8,43.6,30.16,West,281,0.7,2.3,92,0.00,CLR,FEW,0.00,199.0,WeatherDisplay:10.37,2013-05-28 10:37:00,
2013-05-28 06:42:00,46.2,43.7,30.16,West,281,1.2,2.3,91,0.00,CLR,FEW,0.00,213.0,WeatherDisplay:10.37,2013-05-28 10:42:00,
2013-05-28 06:47:00,46.4,43.6,30.16,West,281,0.8,3.5,90,0.00,CLR,FEW,0.00,229.0,WeatherDisplay:10.37,2013-05-28 10:47:00,
2013-05-28 06:52:00,46.6,43.8,30.16,West,281,0.0,0.0,90,0.00,CLR,FEW,0.00,246.0,WeatherDisplay:10.37,2013-05-28 10:52:00,
2013-05-28 06:57:00,46.8,43.4,30.16,West,281,0.0,3.5,88,0.00,CLR,FEW,0.00,269.0,WeatherDisplay:10.37,2013-05-28 10:57:00,
2013-05-28 07:02:00,47.0,43.6,30.16,West,281,0.7,2.3,88,0.00,CLR,FEW,0.00,287.0,WeatherDisplay:10.37,2013-05-28 11:02:00,
2013-05-28 07:07:00,47.3,43.6,30.17,West,280,1.4,3.5,87,0.00,CLR,FEW,0.00,304.0,WeatherDisplay:10.37,2013-05-28 11:07:00,
2013-05-28 07:12:00,47.4,43.4,30.17,West,281,1.0,2.0,86,0.00,CLR,FEW,0.00,320.0,WeatherDisplay:10.37,2013-05-28 11:12:00,
2013-05-28 07:17:00,47.7,44.0,30.17,West,281,0.9,2.3,87,0.00,CLR,FEW,0.00,336.0,WeatherDisplay:10.37,2013-05-28 11:17:00,
2013-05-28 07:22:00,48.0,44.0,30.17,West,281,0.7,2.3,86,0.00,CLR,FEW,0.00,353.0,WeatherDisplay:10.37,2013-05-28 11:22:00,
2013-05-28 07:27:00,48.3,44.0,30.17,West,280,0.9,2.3,85,0.00,CLR,FEW,0.00,371.0,WeatherDisplay:10.37,2013-05-28 11:27:00,
2013-05-28 07:32:00,48.6,44.0,30.17,West,281,1.3,2.3,84,0.00,CLR,FEW,0.00,385.0,WeatherDisplay:10.37,2013-05-28 11:32:00,
2013-05-28 07:37:00,48.8,43.9,30.17,West,280,0.5,1.2,83,0.00,CLR,FEW,0.00,401.0,WeatherDisplay:10.37,2013-05-28 11:37:00,
2013-05-28 07:42:00,49.4,44.5,30.17,West,281,0.1,1.2,83,0.00,CLR,FEW,0.00,420.0,WeatherDisplay:10.37,2013-05-28 11:42:00,
2013-05-28 07:47:00,49.9,44.6,30.17,West,281,0.0,0.0,82,0.00,CLR,FEW,0.00,438.0,WeatherDisplay:10.37,2013-05-28 11:47:00,
2013-05-28 07:52:00,50.4,45.1,30.17,West,281,0.0,0.0,82,0.00,BKN,FEW,0.00,42.0,WeatherDisplay:10.37,2013-05-28 11:52:00,
2013-05-28 07:57:00,50.8,45.2,30.17,West,281,0.1,1.0,81,0.00,CLR,FEW,0.00,468.0,WeatherDisplay:10.37,2013-05-28 11:57:00,
2013-05-28 08:02:00,51.2,45.2,30.17,West,281,0.0,0.0,80,0.00,CLR,FEW,0.00,482.0,WeatherDisplay:10.37,2013-05-28 12:02:00,
2013-05-28 08:07:00,51.5,45.2,30.17,West,281,0.1,1.2,79,0.00,CLR,FEW,0.00,492.0,WeatherDisplay:10.37,2013-05-28 12:07:00,
2013-05-28 08:12:00,52.0,45.4,30.17,West,281,0.0,0.0,78,0.00,CLR,FEW,0.00,508.0,WeatherDisplay:10.37,2013-05-28 12:12:00,
2013-05-28 08:17:00,52.4,45.7,30.17,West,281,0.0,1.2,78,0.00,CLR,FEW,0.00,522.0,WeatherDisplay:10.37,2013-05-28 12:17:00,
2013-05-28 08:22:00,53.0,46.0,30.17,West,281,0.2,1.2,77,0.00,CLR,FEW,0.00,543.0,WeatherDisplay:10.37,2013-05-28 12:22:00,
2013-05-28 08:27:00,53.5,45.8,30.17,West,281,0.4,1.0,75,0.00,CLR,FEW,0.00,559.0,WeatherDisplay:10.37,2013-05-28 12:27:00,
2013-05-28 08:32:00,54.1,45.6,30.17,West,281,0.0,1.2,73,0.00,CLR,FEW,0.00,573.0,WeatherDisplay:10.37,2013-05-28 12:32:00,
2013-05-28 08:37:00,54.7,46.2,30.17,West,281,0.1,1.2,73,0.00,CLR,FEW,0.00,589.0,WeatherDisplay:10.37,2013-05-28 12:37:00,
2013-05-28 08:42:00,55.6,47.1,30.17,West,281,1.2,2.3,73,0.00,CLR,FEW,0.00,605.0,WeatherDisplay:10.37,2013-05-28 12:42:00,
2013-05-28 08:47:00,55.7,46.1,30.17,West,281,0.4,2.3,70,0.00,CLR,FEW,0.00,619.0,WeatherDisplay:10.37,2013-05-28 12:47:00,
2013-05-28 08:52:00,56.3,47.4,30.16,West,281,0.0,0.0,72,0.00,CLR,FEW,0.00,633.0,WeatherDisplay:10.37,2013-05-28 12:52:00,
2013-05-28 08:57:00,56.8,46.3,30.16,West,281,0.3,2.3,68,0.00,CLR,FEW,0.00,649.0,WeatherDisplay:10.37,2013-05-28 12:57:00,
2013-05-28 09:02:00,57.6,47.1,30.16,West,281,0.0,1.0,68,0.00,CLR,FEW,0.00,663.0,WeatherDisplay:10.37,2013-05-28 13:02:00,
2013-05-28 09:07:00,57.8,46.9,30.16,West,281,1.1,2.3,67,0.00,CLR,FEW,0.00,677.0,WeatherDisplay:10.37,2013-05-28 13:07:00,
2013-05-28 09:12:00,58.6,47.3,30.16,West,281,0.0,1.2,66,0.00,CLR,FEW,0.00,689.0,WeatherDisplay:10.37,2013-05-28 13:12:00,
2013-05-28 09:18:00,59.0,45.6,30.16,West,281,0.8,1.2,61,0.00,CLR,FEW,0.00,703.0,WeatherDisplay:10.37,2013-05-28 13:18:00,
2013-05-28 09:23:00,59.5,44.7,30.16,West,281,0.8,2.3,58,0.00,CLR,FEW,0.00,717.0,WeatherDisplay:10.37,2013-05-28 13:23:00,
2013-05-28 09:28:00,60.4,43.7,30.16,West,281,2.6,3.5,54,0.00,CLR,FEW,0.00,729.0,WeatherDisplay:10.37,2013-05-28 13:28:00,
2013-05-28 09:33:00,60.7,44.9,30.16,West,281,0.8,2.3,56,0.00,CLR,FEW,0.00,742.0,WeatherDisplay:10.37,2013-05-28 13:33:00,
2013-05-28 09:38:00,61.3,44.5,30.16,WNW,282,1.2,2.3,54,0.00,CLR,FEW,0.00,754.0,WeatherDisplay:10.37,2013-05-28 13:38:00,
2013-05-28 09:43:00,62.5,45.1,30.16,West,261,0.8,3.5,53,0.00,CLR,FEW,0.00,766.0,WeatherDisplay:10.37,2013-05-28 13:43:00,
2013-05-28 09:48:00,63.3,44.9,30.16,West,263,2.3,4.6,51,0.00,CLR,FEW,0.00,784.0,WeatherDisplay:10.37,2013-05-28 13:48:00,
2013-05-28 09:53:00,63.8,43.7,30.15,WNW,294,1.7,3.5,48,0.00,CLR,FEW,0.00,798.0,WeatherDisplay:10.37,2013-05-28 13:53:00,
2013-05-28 09:58:00,64.1,45.6,30.15,West,281,1.8,3.5,51,0.00,CLR,FEW,0.00,780.0,WeatherDisplay:10.37,2013-05-28 13:58:00,
2013-05-28 10:03:00,64.4,43.7,30.15,West,277,1.5,3.5,47,0.00,CLR,FEW,0.00,800.0,WeatherDisplay:10.37,2013-05-28 14:03:00,
2013-05-28 10:08:00,65.1,43.8,30.16,WSW,249,0.0,0.0,46,0.00,CLR,FEW,0.00,828.0,WeatherDisplay:10.37,2013-05-28 14:08:00,
2013-05-28 10:13:00,65.2,44.5,30.16,ENE,69,0.9,3.5,47,0.00,CLR,FEW,0.00,837.0,WeatherDisplay:10.37,2013-05-28 14:13:00,
2013-05-28 10:18:00,65.6,44.8,30.16,West,276,1.4,3.5,47,0.00,CLR,FEW,0.00,846.0,WeatherDisplay:10.37,2013-05-28 14:18:00,
2013-05-28 10:23:00,65.7,43.2,30.16,ENE,70,0.2,1.2,44,0.00,CLR,FEW,0.00,854.0,WeatherDisplay:10.37,2013-05-28 14:23:00,
2013-05-28 10:28:00,66.2,44.8,30.16,East,98,2.9,4.6,46,0.00,CLR,FEW,0.00,867.0,WeatherDisplay:10.37,2013-05-28 14:28:00,
2013-05-28 10:33:00,66.6,44.0,30.16,NE,49,1.4,3.5,44,0.00,CLR,FEW,0.00,874.0,WeatherDisplay:10.37,2013-05-28 14:33:00,
2013-05-28 10:38:00,66.8,44.2,30.16,NE,40,0.9,4.0,44,0.00,CLR,FEW,0.00,882.0,WeatherDisplay:10.37,2013-05-28 14:38:00,
2013-05-28 10:43:00,67.2,43.3,30.16,East,93,0.6,2.3,42,0.00,CLR,FEW,0.00,893.0,WeatherDisplay:10.37,2013-05-28 14:43:00,
2013-05-28 10:48:00,67.0,44.4,30.16,ENE,68,0.4,2.3,44,0.00,CLR,FEW,0.00,900.0,WeatherDisplay:10.37,2013-05-28 14:48:00,
2013-05-28 10:53:00,67.7,43.8,30.16,ENE,68,1.8,3.5,42,0.00,CLR,FEW,0.00,911.0,WeatherDisplay:10.37,2013-05-28 14:53:00,
2013-05-28 10:58:00,67.6,41.1,30.16,NE,51,1.8,3.5,38,0.00,CLR,FEW,0.00,919.0,WeatherDisplay:10.37,2013-05-28 14:58:00,
2013-05-28 11:03:00,67.6,40.4,30.16,WNW,295,2.6,3.5,37,0.00,CLR,FEW,0.00,916.0,WeatherDisplay:10.37,2013-05-28 15:03:00,
2013-05-28 11:08:00,67.7,39.8,30.15,ENE,67,1.9,3.5,36,0.00,CLR,FEW,0.00,911.0,WeatherDisplay:10.37,2013-05-28 15:08:00,
2013-05-28 11:13:00,67.4,39.5,30.15,ENE,67,0.0,1.2,36,0.00,CLR,FEW,0.00,942.0,WeatherDisplay:10.37,2013-05-28 15:13:00,
2013-05-28 11:18:00,67.2,39.3,30.15,NW,318,2.3,3.5,36,0.00,CLR,FEW,0.00,947.0,WeatherDisplay:10.37,2013-05-28 15:18:00,
2013-05-28 11:23:00,67.3,40.1,30.15,WNW,282,3.9,6.9,37,0.00,CLR,FEW,0.00,953.0,WeatherDisplay:10.37,2013-05-28 15:23:00,
2013-05-28 11:28:00,67.7,39.0,30.15,WNW,287,2.4,4.0,35,0.00,CLR,FEW,0.00,958.0,WeatherDisplay:10.37,2013-05-28 15:28:00,
2013-05-28 11:33:00,68.5,41.2,30.15,WNW,292,1.1,2.3,37,0.00,CLR,FEW,0.00,967.0,WeatherDisplay:10.37,2013-05-28 15:33:00,
2013-05-28 11:38:00,68.6,39.8,30.15,West,279,1.7,6.9,35,0.00,CLR,FEW,0.00,984.0,WeatherDisplay:10.37,2013-05-28 15:38:00,
2013-05-28 11:43:00,68.0,37.8,30.15,NW,319,0.7,3.5,33,0.00,CLR,FEW,0.00,967.0,WeatherDisplay:10.37,2013-05-28 15:43:00,
2013-05-28 11:48:00,67.5,39.6,30.15,NW,319,2.1,3.5,36,0.00,CLR,FEW,0.00,976.0,WeatherDisplay:10.37,2013-05-28 15:48:00,
2013-05-28 11:53:00,67.8,42.6,30.15,NE,55,1.2,3.0,40,0.00,CLR,FEW,0.00,900.0,WeatherDisplay:10.37,2013-05-28 15:53:00,
2013-05-28 11:58:00,68.2,40.9,30.15,East,93,0.1,1.2,37,0.00,CLR,FEW,0.00,984.0,WeatherDisplay:10.37,2013-05-28 15:58:00,
2013-05-28 12:03:00,68.6,39.1,30.15,North,355,0.7,3.5,34,0.00,CLR,FEW,0.00,995.0,WeatherDisplay:10.37,2013-05-28 16:03:00,
2013-05-28 12:08:00,68.3,41.0,30.15,West,275,0.7,3.5,37,0.00,CLR,FEW,0.00,997.0,WeatherDisplay:10.37,2013-05-28 16:08:00,
2013-05-28 12:13:00,68.9,39.4,30.15,WSW,252,2.0,3.5,34,0.00,CLR,FEW,0.00,1007.0,WeatherDisplay:10.37,2013-05-28 16:13:00,
2013-05-28 12:18:00,68.7,41.4,30.15,West,271,2.4,3.5,37,0.00,CLR,FEW,0.00,962.0,WeatherDisplay:10.37,2013-05-28 16:18:00,
2013-05-28 12:23:00,68.8,39.3,30.14,ENE,78,2.2,4.0,34,0.00,CLR,FEW,0.00,967.0,WeatherDisplay:10.37,2013-05-28 16:23:00,
2013-05-28 12:28:00,69.2,38.9,30.14,East,80,1.7,4.6,33,0.00,CLR,FEW,0.00,942.0,WeatherDisplay:10.37,2013-05-28 16:28:00,
2013-05-28 12:33:00,69.5,38.3,30.14,West,278,3.8,6.9,32,0.00,CLR,FEW,0.00,969.0,WeatherDisplay:10.37,2013-05-28 16:33:00,
2013-05-28 12:38:00,69.5,41.4,30.13,East,79,2.5,5.0,36,0.00,CLR,FEW,0.00,991.0,WeatherDisplay:10.37,2013-05-28 16:38:00,
2013-05-28 12:43:00,69.4,44.0,30.13,NE,51,1.4,3.5,40,0.00,CLR,FEW,0.00,986.0,WeatherDisplay:10.37,2013-05-28 16:43:00,
2013-05-28 12:48:00,69.4,39.8,30.13,WNW,282,0.9,3.5,34,0.00,CLR,FEW,0.00,1007.0,WeatherDisplay:10.37,2013-05-28 16:48:00,
2013-05-28 12:53:00,69.5,39.9,30.13,West,281,1.2,3.5,34,0.00,CLR,FEW,0.00,1025.0,WeatherDisplay:10.37,2013-05-28 16:53:00,
2013-05-28 12:58:00,69.7,40.1,30.13,North,355,1.2,2.3,34,0.00,CLR,FEW,0.00,1004.0,WeatherDisplay:10.37,2013-05-28 16:58:00,
2013-05-28 13:03:00,69.6,41.5,30.13,WNW,303,1.4,2.3,36,0.00,CLR,FEW,0.00,972.0,WeatherDisplay:10.37,2013-05-28 17:03:00,
2013-05-28 13:08:00,70.0,41.8,30.13,NNE,24,0.3,2.0,36,0.00,CLR,FEW,0.00,942.0,WeatherDisplay:10.37,2013-05-28 17:08:00,
2013-05-28 13:13:00,70.1,43.3,30.13,ENE,57,0.9,2.0,38,0.00,CLR,FEW,0.00,925.0,WeatherDisplay:10.37,2013-05-28 17:13:00,
2013-05-28 13:18:00,70.1,41.2,30.13,East,79,0.6,3.5,35,0.00,SCT,FEW,0.00,779.0,WeatherDisplay:10.37,2013-05-28 17:18:00,
2013-05-28 13:23:00,70.1,40.4,30.12,ENE,69,1.8,4.6,34,0.00,SCT,FEW,0.00,738.0,WeatherDisplay:10.37,2013-05-28 17:23:00,
2013-05-28 13:28:00,69.9,39.5,30.12,NNE,25,2.2,3.5,33,0.00,SCT,FEW,0.00,715.0,WeatherDisplay:10.37,2013-05-28 17:28:00,
2013-05-28 13:33:00,69.8,41.6,30.12,ENE,63,0.1,3.5,36,0.00,SCT,FEW,0.00,744.0,WeatherDisplay:10.37,2013-05-28 17:33:00,
2013-05-28 13:38:00,70.3,42.1,30.12,WNW,303,0.3,2.3,36,0.00,SCT,FEW,0.00,768.0,WeatherDisplay:10.37,2013-05-28 17:38:00,
2013-05-28 13:43:00,70.6,43.1,30.12,East,86,2.2,3.5,37,0.00,FEW,,0.00,837.0,WeatherDisplay:10.37,2013-05-28 17:43:00,
2013-05-28 13:48:00,70.4,40.7,30.12,East,95,1.3,2.3,34,0.00,SCT,FEW,0.00,837.0,WeatherDisplay:10.37,2013-05-28 17:48:00,
2013-05-28 13:53:00,70.2,39.7,30.11,NNE,22,1.0,3.5,33,0.00,CLR,FEW,0.00,925.0,WeatherDisplay:10.37,2013-05-28 17:53:00,
2013-05-28 13:58:00,69.8,43.0,30.11,ENE,57,3.4,5.8,38,0.00,FEW,,0.00,817.0,WeatherDisplay:10.37,2013-05-28 17:58:00,
2013-05-28 14:03:00,70.2,41.3,30.11,NNW,337,0.6,3.5,35,0.00,CLR,FEW,0.00,812.0,WeatherDisplay:10.37,2013-05-28 18:03:00,
2013-05-28 14:08:00,70.8,41.0,30.11,East,98,0.4,2.0,34,0.00,FEW,,0.00,854.0,WeatherDisplay:10.37,2013-05-28 18:08:00,
2013-05-28 14:13:00,71.2,42.9,30.11,East,79,3.6,5.8,36,0.00,FEW,,0.00,807.0,WeatherDisplay:10.37,2013-05-28 18:13:00,
2013-05-28 14:18:00,70.9,42.6,30.11,East,87,0.0,0.0,36,0.00,FEW,,0.00,802.0,WeatherDisplay:10.37,2013-05-28 18:18:00,
2013-05-28 14:23:00,70.5,40.8,30.11,NE,40,2.2,4.0,34,0.00,FEW,,0.00,744.0,WeatherDisplay:10.37,2013-05-28 18:23:00,
2013-05-28 14:28:00,70.3,39.8,30.11,NE,40,1.7,2.3,33,0.00,FEW,,0.00,763.0,WeatherDisplay:10.37,2013-05-28 18:28:00,
2013-05-28 14:33:00,70.4,41.4,30.11,NW,317,1.0,3.5,35,0.00,CLR,FEW,0.00,814.0,WeatherDisplay:10.37,2013-05-28 18:33:00,
2013-05-28 14:38:00,71.3,42.2,30.10,NE,56,2.1,4.6,35,0.00,FEW,,0.00,740.0,WeatherDisplay:10.37,2013-05-28 18:38:00,
2013-05-28 14:43:00,71.6,41.7,30.10,NNE,33,1.7,4.6,34,0.00,CLR,FEW,0.00,780.0,WeatherDisplay:10.37,2013-05-28 18:43:00,
2013-05-28 14:48:00,71.3,41.5,30.10,NE,45,2.1,4.6,34,0.00,CLR,FEW,0.00,798.0,WeatherDisplay:10.37,2013-05-28 18:48:00,
2013-05-28 14:53:00,71.4,43.8,30.10,East,79,3.0,3.5,37,0.00,CLR,FEW,0.00,666.0,WeatherDisplay:10.37,2013-05-28 18:53:00,
2013-05-28 14:58:00,71.7,44.0,30.10,West,261,1.3,5.0,37,0.00,CLR,FEW,0.00,805.0,WeatherDisplay:10.37,2013-05-28 18:58:00,
2013-05-28 15:03:00,71.3,39.9,30.10,NE,39,2.4,3.5,32,0.00,FEW,,0.00,719.0,WeatherDisplay:10.37,2013-05-28 19:03:00,
2013-05-28 15:09:00,71.3,40.7,30.10,West,278,2.1,2.3,33,0.00,FEW,,0.00,714.0,WeatherDisplay:10.37,2013-05-28 19:09:00,
2013-05-28 15:14:00,71.5,43.8,30.10,North,9,1.2,5.8,37,0.00,CLR,FEW,0.00,752.0,WeatherDisplay:10.37,2013-05-28 19:14:00,
2013-05-28 15:19:00,71.6,40.2,30.10,NE,34,1.1,2.3,32,0.00,SCT,FEW,0.00,561.0,WeatherDisplay:10.37,2013-05-28 19:19:00,
2013-05-28 15:24:00,71.5,41.6,30.10,West,277,1.7,3.5,34,0.00,CLR,FEW,0.00,580.0,WeatherDisplay:10.37,2013-05-28 19:24:00,
2013-05-28 15:29:00,71.6,40.2,30.10,West,274,0.2,1.2,32,0.00,BKN,FEW,0.00,299.0,WeatherDisplay:10.37,2013-05-28 19:29:00,
2013-05-28 15:34:00,71.5,42.4,30.10,ENE,61,0.9,2.3,35,0.00,FEW,,0.00,671.0,WeatherDisplay:10.37,2013-05-28 19:34:00,
2013-05-28 15:39:00,71.7,41.8,30.09,ENE,61,1.9,3.5,34,0.00,BKN,FEW,0.00,348.0,WeatherDisplay:10.37,2013-05-28 19:39:00,
2013-05-28 15:44:00,71.7,41.8,30.09,ENE,75,0.4,3.5,34,0.00,BKN,FEW,0.00,311.0,WeatherDisplay:10.37,2013-05-28 19:44:00,
2013-05-28 15:49:00,71.6,41.7,30.09,WSW,247,2.0,3.5,34,0.00,BKN,FEW,0.00,329.0,WeatherDisplay:10.37,2013-05-28 19:49:00,
2013-05-28 15:54:00,71.3,43.0,30.09,WNW,289,0.8,2.3,36,0.00,BKN,FEW,0.00,287.0,WeatherDisplay:10.37,2013-05-28 19:54:00,
2013-05-28 15:59:00,71.2,41.4,30.09,SE,134,3.1,6.0,34,0.00,BKN,FEW,0.00,329.0,WeatherDisplay:10.37,2013-05-28 19:59:00,
2013-05-28 16:04:00,71.4,43.0,30.09,West,276,3.8,6.0,36,0.00,BKN,FEW,0.00,330.0,WeatherDisplay:10.37,2013-05-28 20:04:00,
2013-05-28 16:09:00,71.3,39.9,30.08,West,262,0.9,2.3,32,0.00,SCT,FEW,0.00,369.0,WeatherDisplay:10.37,2013-05-28 20:09:00,
2013-05-28 16:14:00,71.5,43.1,30.08,WSW,250,0.7,4.0,36,0.00,BKN,FEW,0.00,227.0,WeatherDisplay:10.37,2013-05-28 20:14:00,
2013-05-28 16:19:00,71.7,44.7,30.08,WNW,300,0.8,2.3,38,0.00,BKN,FEW,0.00,199.0,WeatherDisplay:10.37,2013-05-28 20:19:00,
2013-05-28 16:24:00,71.7,42.6,30.08,ENE,77,4.5,6.9,35,0.00,SCT,FEW,0.00,334.0,WeatherDisplay:10.37,2013-05-28 20:24:00,
2013-05-28 16:29:00,71.8,43.4,30.08,NE,56,0.3,1.2,36,0.00,BKN,FEW,0.00,239.0,WeatherDisplay:10.37,2013-05-28 20:29:00,
2013-05-28 16:34:00,71.7,44.7,30.08,NE,56,0.4,1.2,38,0.00,BKN,FEW,0.00,193.0,WeatherDisplay:10.37,2013-05-28 20:34:00,
2013-05-28 16:39:00,71.7,44.7,30.08,ENE,67,2.2,4.0,38,0.00,BKN,FEW,0.00,264.0,WeatherDisplay:10.37,2013-05-28 20:39:00,
2013-05-28 16:44:00,71.9,42.0,30.08,ENE,69,1.2,3.5,34,0.00,BKN,FEW,0.00,176.0,WeatherDisplay:10.37,2013-05-28 20:44:00,
2013-05-28 16:49:00,71.8,43.4,30.08,NE,52,2.1,3.5,36,0.00,BKN,FEW,0.00,158.0,WeatherDisplay:10.37,2013-05-28 20:49:00,
2013-05-28 16:54:00,71.7,44.7,30.08,East,86,1.0,2.3,38,0.00,SCT,FEW,0.00,322.0,WeatherDisplay:10.37,2013-05-28 20:54:00,
2013-05-28 16:59:00,71.0,45.5,30.08,West,281,2.3,4.6,40,0.00,BKN,FEW,0.00,220.0,WeatherDisplay:10.37,2013-05-28 20:59:00,
2013-05-28 17:04:00,70.3,48.5,30.08,East,86,0.5,10.0,46,0.00,BKN,FEW,0.00,137.0,WeatherDisplay:10.37,2013-05-28 21:04:00,
2013-05-28 17:09:00,70.0,45.8,30.08,North,360,1.1,2.3,42,0.00,BKN,FEW,0.00,169.0,WeatherDisplay:10.37,2013-05-28 21:09:00,
2013-05-28 17:14:00,69.6,44.8,30.08,ENE,65,1.2,3.5,41,0.00,BKN,FEW,0.00,139.0,WeatherDisplay:10.37,2013-05-28 21:14:00,
2013-05-28 17:19:00,69.2,45.1,30.08,West,276,1.9,4.6,42,0.00,BKN,FEW,0.00,148.0,WeatherDisplay:10.37,2013-05-28 21:19:00,
2013-05-28 17:24:00,68.9,46.1,30.08,NW,304,1.1,3.0,44,0.00,BKN,FEW,0.00,172.0,WeatherDisplay:10.37,2013-05-28 21:24:00,
2013-05-28 17:29:00,68.7,46.5,30.08,NE,55,0.0,0.0,45,0.00,BKN,FEW,0.00,144.0,WeatherDisplay:10.37,2013-05-28 21:29:00,
2013-05-28 17:34:00,68.8,45.4,30.08,SE,143,0.5,2.3,43,0.00,BKN,FEW,0.00,151.0,WeatherDisplay:10.37,2013-05-28 21:34:00,
2013-05-28 17:39:00,69.0,46.8,30.08,ENE,66,1.3,3.5,45,0.00,BKN,FEW,0.00,141.0,WeatherDisplay:10.37,2013-05-28 21:39:00,
2013-05-28 17:44:00,68.8,44.8,30.08,ENE,74,0.1,1.2,42,0.00,BKN,FEW,0.00,218.0,WeatherDisplay:10.37,2013-05-28 21:44:00,
2013-05-28 17:49:00,68.7,45.9,30.08,WNW,288,0.6,3.0,44,0.00,SCT,FEW,0.00,195.0,WeatherDisplay:10.37,2013-05-28 21:49:00,
2013-05-28 17:54:00,68.3,44.9,30.08,WSW,253,2.0,3.5,43,0.00,BKN,FEW,0.00,137.0,WeatherDisplay:10.37,2013-05-28 21:54:00,
2013-05-28 17:59:00,68.1,45.9,30.08,NNE,32,1.0,2.3,45,0.00,SCT,FEW,0.00,174.0,WeatherDisplay:10.37,2013-05-28 21:59:00,
2013-05-28 18:04:00,68.0,44.7,30.08,ESE,119,1.2,3.5,43,0.00,BKN,FEW,0.00,139.0,WeatherDisplay:10.37,2013-05-28 22:04:00,
2013-05-28 18:09:00,67.8,46.3,30.08,NNE,22,1.0,3.5,46,0.00,BKN,FEW,0.00,144.0,WeatherDisplay:10.37,2013-05-28 22:09:00,
2013-05-28 18:14:00,67.6,44.9,30.08,East,101,1.6,3.5,44,0.00,BKN,FEW,0.00,123.0,WeatherDisplay:10.37,2013-05-28 22:14:00,
2013-05-28 18:19:00,67.4,45.9,30.08,ENE,78,2.2,4.0,46,0.00,BKN,FEW,0.00,118.0,WeatherDisplay:10.37,2013-05-28 22:19:00,
2013-05-28 18:24:00,67.2,45.7,30.08,West,259,2.1,3.5,46,0.00,BKN,FEW,0.00,109.0,WeatherDisplay:10.37,2013-05-28 22:24:00,
2013-05-28 18:29:00,66.8,45.3,30.08,North,360,1.9,4.6,46,0.00,BKN,FEW,0.00,113.0,WeatherDisplay:10.37,2013-05-28 22:29:00,
2013-05-28 18:34:00,66.6,45.2,30.08,WSW,256,1.1,3.5,46,0.00,BKN,FEW,0.00,93.0,WeatherDisplay:10.37,2013-05-28 22:34:00,
2013-05-28 18:39:00,66.3,43.7,30.08,WSW,253,1.9,4.6,44,0.00,BKN,FEW,0.00,98.0,WeatherDisplay:10.37,2013-05-28 22:39:00,
2013-05-28 18:44:00,66.1,43.5,30.08,East,79,1.5,3.5,44,0.00,BKN,FEW,0.00,93.0,WeatherDisplay:10.37,2013-05-28 22:44:00,
2013-05-28 18:49:00,66.0,44.6,30.08,East,88,1.4,3.5,46,0.00,BKN,FEW,0.00,83.0,WeatherDisplay:10.37,2013-05-28 22:49:00,
2013-05-28 18:54:00,65.9,43.9,30.08,ESE,111,2.5,5.8,45,0.00,BKN,FEW,0.00,67.0,WeatherDisplay:10.37,2013-05-28 22:54:00,
2013-05-28 18:59:00,65.6,44.8,30.08,SW,232,3.1,4.6,47,0.00,BKN,FEW,0.00,60.0,WeatherDisplay:10.37,2013-05-28 22:59:00,
2013-05-28 19:04:00,64.9,44.2,30.08,WSW,244,2.4,6.0,47,0.00,BKN,FEW,0.00,56.0,WeatherDisplay:10.37,2013-05-28 23:04:00,
2013-05-28 19:09:00,64.6,44.5,30.08,SSW,194,2.1,3.5,48,0.00,BKN,FEW,0.00,51.0,WeatherDisplay:10.37,2013-05-28 23:09:00,
2013-05-28 19:14:00,64.2,44.6,30.08,WSW,247,0.1,2.3,49,0.00,BKN,FEW,0.00,49.0,WeatherDisplay:10.37,2013-05-28 23:14:00,
2013-05-28 19:19:00,64.0,44.4,30.08,ENE,57,1.1,4.6,49,0.00,BKN,FEW,0.00,49.0,WeatherDisplay:10.37,2013-05-28 23:19:00,
2013-05-28 19:24:00,64.0,43.9,30.08,East,101,2.2,6.9,48,0.00,BKN,FEW,0.00,46.0,WeatherDisplay:10.37,2013-05-28 23:24:00,
2013-05-28 19:29:00,64.0,45.0,30.08,WSW,249,1.3,4.6,50,0.00,BKN,FEW,0.00,42.0,WeatherDisplay:10.37,2013-05-28 23:29:00,
2013-05-28 19:34:00,63.7,44.2,30.08,NNW,336,1.3,3.5,49,0.00,SCT,FEW,0.00,42.0,WeatherDisplay:10.37,2013-05-28 23:34:00,
2013-05-28 19:39:00,63.5,45.0,30.09,WNW,290,0.8,3.0,51,0.00,SCT,FEW,0.00,39.0,WeatherDisplay:10.37,2013-05-28 23:39:00,
2013-05-28 19:44:00,63.5,45.0,30.09,WNW,298,1.0,3.5,51,0.00,SCT,FEW,0.00,32.0,WeatherDisplay:10.37,2013-05-28 23:44:00,
2013-05-28 19:49:00,63.4,44.4,30.09,NNW,334,1.3,3.5,50,0.00,BKN,FEW,0.00,23.0,WeatherDisplay:10.37,2013-05-28 23:49:00,
2013-05-28 19:54:00,63.3,45.4,30.09,NW,319,0.9,3.5,52,0.00,BKN,FEW,0.00,18.0,WeatherDisplay:10.37,2013-05-28 23:54:00,
2013-05-28 19:59:00,63.1,43.1,30.09,NW,308,1.8,4.6,48,0.00,BKN,FEW,0.00,12.0,WeatherDisplay:10.37,2013-05-28 23:59:00,
2013-05-28 20:04:00,62.9,45.0,30.09,North,10,0.4,3.5,52,0.00,BKN,FEW,0.00,7.0,WeatherDisplay:10.37,2013-05-29 00:04:00,
2013-05-28 20:09:00,62.7,42.7,30.10,North,360,1.4,2.0,48,0.00,BKN,FEW,0.00,5.0,WeatherDisplay:10.37,2013-05-29 00:09:00,
2013-05-28 20:14:00,62.5,42.0,30.10,WNW,288,2.6,3.5,47,0.00,CLR,FEW,0.00,0.0,WeatherDisplay:10.37,2013-05-29 00:14:00,
2013-05-28 20:19:00,62.1,44.3,30.10,West,279,0.3,1.2,52,0.00,CLR,FEW,0.00,0.0,WeatherDisplay:10.37,2013-05-29 00:19:00,
2013-05-28 20:24:00,61.6,43.3,30.10,West,279,0.0,1.2,51,0.00,CLR,FEW,0.00,0.0,WeatherDisplay:10.37,2013-05-29 00:24:00,
2013-05-28 20:29:00,61.2,43.9,30.10,North,5,1.0,3.5,53,0.00,CLR,FEW,0.00,0.0,WeatherDisplay:10.37,2013-05-29 00:29:00,
2013-05-28 20:34:00,60.9,42.6,30.10,East,90,2.8,4.6,51,0.00,CLR,FEW,0.00,0.0,WeatherDisplay:10.37,2013-05-29 00:34:00,
2013-05-28 20:39:00,60.7,42.5,30.10,NNW,331,3.0,5.0,51,0.00,CLR,FEW,0.00,0.0,WeatherDisplay:10.37,2013-05-29 00:39:00,
2013-05-28 20:44:00,60.5,42.8,30.10,NE,37,1.3,3.5,52,0.00,CLR,FEW,0.00,0.0,WeatherDisplay:10.37,2013-05-29 00:44:00,
2013-05-28 20:49:00,59.9,41.7,30.10,NNW,331,0.0,0.0,51,0.00,CLR,FEW,0.00,0.0,WeatherDisplay:10.37,2013-05-29 00:49:00,
2013-05-28 20:54:00,59.0,41.9,30.11,NNW,330,0.8,2.3,53,0.00,CLR,FEW,0.00,0.0,WeatherDisplay:10.37,2013-05-29 00:54:00,
2013-05-28 20:59:00,58.7,42.6,30.11,NNW,327,0.4,2.0,55,0.00,CLR,FEW,0.00,0.0,WeatherDisplay:10.37,2013-05-29 00:59:00,
2013-05-28 21:04:00,59.0,43.3,30.11,WNW,290,1.0,3.5,56,0.00,CLR,FEW,0.00,0.0,WeatherDisplay:10.37,2013-05-29 01:04:00,
2013-05-28 21:09:00,59.0,43.3,30.11,WNW,290,3.4,4.6,56,0.00,CLR,FEW,0.00,0.0,WeatherDisplay:10.37,2013-05-29 01:09:00,
2013-05-28 21:14:00,58.2,42.6,30.11,WNW,290,0.0,0.0,56,0.00,CLR,FEW,0.00,0.0,WeatherDisplay:10.37,2013-05-29 01:14:00,
2013-05-28 21:19:00,57.5,41.9,30.11,WNW,290,0.0,0.0,56,0.00,CLR,FEW,0.00,0.0,WeatherDisplay:10.37,2013-05-29 01:19:00,
2013-05-28 21:24:00,56.8,42.6,30.12,WNW,290,0.0,0.0,59,0.00,CLR,FEW,0.00,0.0,WeatherDisplay:10.37,2013-05-29 01:24:00,
2013-05-28 21:29:00,56.6,42.9,30.12,WNW,290,0.0,0.0,60,0.00,CLR,FEW,0.00,0.0,WeatherDisplay:10.37,2013-05-29 01:29:00,
2013-05-28 21:34:00,56.3,43.4,30.12,WNW,290,0.0,1.2,62,0.00,CLR,FEW,0.00,0.0,WeatherDisplay:10.37,2013-05-29 01:34:00,
2013-05-28 21:39:00,55.6,43.2,30.12,WNW,290,0.0,0.0,63,0.00,CLR,FEW,0.00,0.0,WeatherDisplay:10.37,2013-05-29 01:39:00,
2013-05-28 21:44:00,55.2,44.0,30.12,WNW,290,0.0,0.0,66,0.00,CLR,FEW,0.00,0.0,WeatherDisplay:10.37,2013-05-29 01:44:00,
2013-05-28 21:49:00,55.0,46.1,30.12,WNW,290,0.0,1.0,72,0.00,CLR,FEW,0.00,0.0,WeatherDisplay:10.37,2013-05-29 01:49:00,
2013-05-28 21:54:00,54.6,44.2,30.12,WNW,290,0.0,2.3,68,0.00,CLR,FEW,0.00,0.0,WeatherDisplay:10.37,2013-05-29 01:54:00,
2013-05-28 21:59:00,54.2,43.5,30.12,WNW,290,0.0,2.3,67,0.00,CLR,FEW,0.00,0.0,WeatherDisplay:10.37,2013-05-29 01:59:00,
2013-05-28 22:04:00,53.7,43.0,30.12,WNW,290,0.0,0.0,67,0.00,CLR,FEW,0.00,0.0,WeatherDisplay:10.37,2013-05-29 02:04:00,
2013-05-28 22:09:00,53.6,43.3,30.13,WNW,290,0.0,2.0,68,0.00,CLR,FEW,0.00,0.0,WeatherDisplay:10.37,2013-05-29 02:09:00,
2013-05-28 22:14:00,53.7,44.1,30.13,WNW,290,0.0,0.0,70,0.00,CLR,FEW,0.00,0.0,WeatherDisplay:10.37,2013-05-29 02:14:00,
2013-05-28 22:19:00,53.6,44.4,30.13,WNW,290,0.0,0.0,71,0.00,CLR,FEW,0.00,0.0,WeatherDisplay:10.37,2013-05-29 02:19:00,
2013-05-28 22:24:00,53.1,43.6,30.13,WNW,290,0.0,0.0,70,0.00, +SHSN,FEW,0.00,0.0,WeatherDisplay:10.37,2013-05-29 02:24:00,
2013-05-28 22:30:00,52.7,43.6,30.13,WNW,290,0.1,1.2,71,0.00,CLR,FEW,0.00,0.0,WeatherDisplay:10.37,2013-05-29 02:30:00,
2013-05-28 22:35:00,52.7,43.5,30.13,WNW,290,0.0,3.0,71,0.00, +SHSN,FEW,0.00,0.0,WeatherDisplay:10.37,2013-05-29 02:35:00,
2013-05-28 22:40:00,52.8,43.6,30.12,WNW,290,0.0,3.0,71,0.00, +SHSN,FEW,0.00,0.0,WeatherDisplay:10.37,2013-05-29 02:40:00,
2013-05-28 22:45:00,52.4,42.9,30.12,WNW,290,0.0,0.0,70,0.00, +SHSN,FEW,0.00,0.0,WeatherDisplay:10.37,2013-05-29 02:45:00,
2013-05-28 22:50:00,52.2,42.7,30.12,WNW,290,0.0,1.0,70,0.00, +SHSN,FEW,0.00,0.0,WeatherDisplay:10.37,2013-05-29 02:50:00,
2013-05-28 22:55:00,52.0,43.6,30.13,WNW,290,0.3,1.2,73,0.00,CLR,FEW,0.00,0.0,WeatherDisplay:10.37,2013-05-29 02:55:00,
2013-05-28 23:00:00,52.4,44.7,30.13,WNW,290,1.9,2.3,75,0.00,CLR,FEW,0.00,0.0,WeatherDisplay:10.37,2013-05-29 03:00:00,
2013-05-28 23:05:00,52.2,43.8,30.13,WNW,290,0.0,1.0,73,0.00, +SHSN,FEW,0.00,0.0,WeatherDisplay:10.37,2013-05-29 03:05:00,
2013-05-28 23:10:00,51.8,43.8,30.13,WNW,290,0.0,0.0,74,0.00, +SHSN,FEW,0.00,0.0,WeatherDisplay:10.37,2013-05-29 03:10:00,
2013-05-28 23:15:00,51.5,43.8,30.13,WNW,290,0.0,0.0,75,0.00, +SHSN,FEW,0.00,0.0,WeatherDisplay:10.37,2013-05-29 03:15:00,
2013-05-28 23:20:00,51.2,43.6,30.13,WNW,290,0.0,0.0,75,0.00, +SHSN,FEW,0.00,0.0,WeatherDisplay:10.37,2013-05-29 03:20:00,
2013-05-28 23:25:00,50.8,43.5,30.12,WNW,290,0.0,0.0,76,0.00, +SHSN,FEW,0.00,0.0,WeatherDisplay:10.37,2013-05-29 03:25:00,
2013-05-28 23:30:00,50.5,43.6,30.12,WNW,290,0.0,0.0,77,0.00,CLR,FEW,0.00,0.0,WeatherDisplay:10.37,2013-05-29 03:30:00,
2013-05-28 23:35:00,50.3,43.4,30.12,WNW,290,0.0,0.0,77,0.00,CLR,FEW,0.00,0.0,WeatherDisplay:10.37,2013-05-29 03:35:00,
2013-05-28 23:40:00,50.1,43.2,30.12,WNW,290,0.0,1.0,77,0.00, +SHSN,FEW,0.00,0.0,WeatherDisplay:10.37,2013-05-29 03:40:00,
2013-05-28 23:44:00,49.9,43.3,30.12,WNW,290,0.0,0.0,78,0.00,CLR,FEW,0.00,0.0,WeatherDisplay:10.37,2013-05-29 03:44:00,
2013-05-28 23:49:00,49.8,43.2,30.12,WNW,290,0.0,0.0,78,0.00,CLR,FEW,0.00,0.0,WeatherDisplay:10.37,2013-05-29 03:49:00,
2013-05-28 23:55:00,49.6,43.0,30.12,WNW,290,0.0,0.0,78,0.00, +SHSN,FEW,0.00,0.0,WeatherDisplay:10.37,2013-05-29 03:55:00,